createdAt,value
2018-02-22T00:00:49.073Z,99.90
2018-02-22T00:03:16.641Z,99.90
2018-02-22T00:05:44.298Z,99.90
2018-02-22T00:08:11.863Z,99.90
2018-02-22T00:10:39.453Z,99.90
2018-02-22T00:13:08.711Z,99.90
2018-02-22T00:15:36.322Z,99.90
2018-02-22T00:18:03.882Z,99.90
2018-02-22T00:20:32.211Z,99.90
2018-02-22T00:22:59.822Z,99.90
2018-02-22T00:25:28.150Z,99.90
2018-02-22T00:27:55.714Z,99.90
2018-02-22T00:30:23.285Z,99.90
2018-02-22T00:32:50.830Z,99.90
2018-02-22T00:35:18.389Z,99.90
2018-02-22T00:37:45.939Z,99.90
2018-02-22T00:40:13.574Z,99.90
2018-02-22T00:42:41.160Z,99.90
2018-02-22T00:45:08.813Z,99.90
2018-02-22T00:47:36.387Z,99.90
2018-02-22T00:50:04.721Z,99.90
2018-02-22T00:52:33.094Z,99.90
2018-02-22T00:55:00.663Z,99.90
2018-02-22T00:57:29.052Z,99.90
2018-02-22T00:59:56.625Z,99.90
2018-02-22T01:02:24.187Z,99.90
2018-02-22T01:04:51.750Z,99.90
2018-02-22T01:07:19.355Z,99.90
2018-02-22T01:09:46.938Z,99.90
2018-02-22T01:12:14.531Z,99.90
2018-02-22T01:14:42.199Z,99.90
2018-02-22T01:17:09.781Z,99.90
2018-02-22T01:19:37.341Z,99.90
2018-02-22T01:22:04.963Z,99.90
2018-02-22T01:24:33.348Z,99.90
2018-02-22T01:27:00.986Z,99.90
2018-02-22T01:29:28.586Z,99.90
2018-02-22T01:31:56.166Z,99.90
2018-02-22T01:34:23.737Z,99.90
2018-02-22T01:36:51.337Z,99.90
2018-02-22T01:39:19.680Z,99.90
2018-02-22T01:41:47.245Z,99.90
2018-02-22T01:44:14.821Z,99.90
2018-02-22T01:46:42.406Z,99.90
2018-02-22T01:49:09.994Z,99.90
2018-02-22T01:51:37.597Z,99.90
2018-02-22T01:54:05.157Z,99.90
2018-02-22T01:56:32.712Z,99.90
2018-02-22T01:59:00.323Z,99.90
2018-02-22T02:01:27.882Z,99.90
2018-02-22T02:03:55.441Z,99.90
2018-02-22T02:06:23.006Z,99.90
2018-02-22T02:08:50.572Z,99.90
2018-02-22T02:11:18.121Z,99.90
2018-02-22T02:13:45.704Z,99.90
2018-02-22T02:16:13.272Z,99.90
2018-02-22T02:18:40.837Z,99.90
2018-02-22T02:21:08.399Z,99.90
2018-02-22T02:23:35.954Z,99.90
2018-02-22T02:26:03.511Z,99.90
2018-02-22T02:28:31.860Z,99.90
2018-02-22T02:30:59.427Z,99.90
2018-02-22T02:33:26.988Z,99.90
2018-02-22T02:35:54.554Z,99.90
2018-02-22T02:38:22.114Z,99.90
2018-02-22T02:40:49.669Z,99.90
2018-02-22T02:43:17.257Z,99.90
2018-02-22T02:45:44.848Z,99.90
2018-02-22T02:48:12.432Z,99.90
2018-02-22T02:50:39.993Z,99.90
2018-02-22T02:53:08.370Z,99.90
2018-02-22T02:55:36.702Z,99.90
2018-02-22T02:58:04.261Z,99.90
2018-02-22T03:00:31.847Z,99.90
2018-02-22T03:02:59.402Z,99.90
2018-02-22T03:05:26.976Z,99.90
2018-02-22T03:07:55.305Z,99.90
2018-02-22T03:10:22.869Z,99.90
2018-02-22T03:12:50.456Z,99.90
2018-02-22T03:15:18.024Z,99.90
2018-02-22T03:17:45.589Z,99.90
2018-02-22T03:20:13.137Z,99.90
2018-02-22T03:22:40.718Z,99.90
2018-02-22T03:25:08.278Z,99.90
2018-02-22T03:27:36.609Z,99.90
2018-02-22T03:30:04.200Z,99.90
2018-02-22T03:32:31.757Z,99.90
2018-02-22T03:34:59.299Z,99.90
2018-02-22T03:37:26.926Z,99.90
2018-02-22T03:39:54.538Z,99.90
2018-02-22T03:42:22.114Z,99.90
2018-02-22T03:44:49.678Z,99.90
2018-02-22T03:47:18.018Z,99.90
2018-02-22T03:49:45.596Z,99.90
2018-02-22T03:52:13.214Z,99.90
2018-02-22T03:54:40.780Z,99.90
2018-02-22T03:57:08.376Z,99.90
2018-02-22T03:59:35.954Z,99.90
2018-02-22T04:02:03.548Z,99.90
2018-02-22T04:04:31.099Z,99.90
2018-02-22T04:06:58.689Z,99.90
2018-02-22T04:09:26.315Z,99.90
2018-02-22T04:11:54.682Z,99.90
2018-02-22T04:14:23.038Z,99.90
2018-02-22T04:16:50.607Z,99.90
2018-02-22T04:19:18.168Z,99.90
2018-02-22T04:21:45.801Z,99.90
2018-02-22T04:24:13.425Z,99.90
2018-02-22T04:26:40.988Z,99.90
2018-02-22T04:29:08.568Z,99.90
2018-02-22T04:31:36.182Z,99.90
2018-02-22T04:34:03.770Z,99.90
2018-02-22T04:36:31.359Z,99.90
2018-02-22T04:38:58.943Z,99.90
2018-02-22T04:41:26.505Z,99.90
2018-02-22T04:43:54.056Z,99.90
2018-02-22T04:46:21.621Z,99.90
2018-02-22T04:48:49.180Z,99.90
2018-02-22T04:51:16.748Z,99.90
2018-02-22T04:53:44.318Z,99.90
2018-02-22T04:56:11.896Z,99.90
2018-02-22T04:58:39.469Z,99.90
2018-02-22T05:01:07.802Z,99.90
2018-02-22T05:03:36.189Z,99.90
2018-02-22T05:06:03.755Z,99.90
2018-02-22T05:08:31.327Z,99.90
2018-02-22T05:10:59.712Z,99.90
2018-02-22T05:13:27.267Z,99.90
2018-02-22T05:15:54.784Z,99.90
2018-02-22T05:18:22.294Z,99.90
2018-02-22T05:20:49.820Z,99.90
2018-02-22T05:23:17.479Z,99.90
2018-02-22T05:25:45.008Z,99.90
2018-02-22T05:28:12.518Z,99.90
2018-02-22T05:30:47.619Z,99.90
2018-02-22T05:33:15.173Z,99.90
2018-02-22T05:35:42.694Z,99.90
2018-02-22T05:38:11.035Z,99.90
2018-02-22T05:40:38.539Z,99.90
2018-02-22T05:43:06.840Z,99.90
2018-02-22T05:45:34.366Z,99.90
2018-02-22T05:48:02.677Z,99.90
2018-02-22T05:50:30.190Z,99.90
2018-02-22T05:52:57.711Z,99.90
2018-02-22T05:55:25.244Z,99.90
2018-02-22T05:57:52.760Z,99.90
2018-02-22T06:00:20.294Z,99.90
2018-02-22T06:02:47.864Z,99.90
2018-02-22T06:05:15.390Z,99.90
2018-02-22T06:07:42.949Z,99.90
2018-02-22T06:10:10.463Z,99.90
2018-02-22T06:12:38.790Z,99.90
2018-02-22T06:15:06.356Z,99.90
2018-02-22T06:17:33.916Z,99.90
2018-02-22T06:20:01.489Z,99.90
2018-02-22T06:22:30.512Z,99.90
2018-02-22T06:24:58.037Z,99.90
2018-02-22T06:27:25.689Z,99.90
2018-02-22T06:29:53.209Z,99.90
2018-02-22T06:32:21.486Z,99.90
2018-02-22T06:34:49.786Z,99.90
2018-02-22T06:37:18.078Z,99.90
2018-02-22T06:39:45.608Z,99.90
2018-02-22T06:42:13.160Z,99.90
2018-02-22T06:44:41.495Z,99.90
2018-02-22T06:47:09.024Z,99.90
2018-02-22T06:49:36.609Z,99.90
2018-02-22T06:52:04.157Z,99.90
2018-02-22T06:54:31.679Z,99.90
2018-02-22T06:56:59.990Z,99.90
2018-02-22T06:59:27.511Z,99.90
2018-02-22T07:01:55.086Z,99.90
2018-02-22T07:04:23.385Z,99.90
2018-02-22T07:06:50.899Z,99.90
2018-02-22T07:09:18.417Z,99.90
2018-02-22T07:11:45.929Z,99.90
2018-02-22T07:14:14.236Z,99.90
2018-02-22T07:16:42.027Z,99.90
2018-02-22T07:19:09.685Z,99.90
2018-02-22T07:21:37.218Z,99.90
2018-02-22T07:24:05.482Z,99.90
2018-02-22T07:26:33.751Z,99.90
2018-02-22T07:29:02.062Z,99.90
2018-02-22T07:31:29.573Z,99.90
2018-02-22T07:33:57.193Z,99.90
2018-02-22T07:36:24.708Z,99.90
2018-02-22T07:38:53.323Z,99.90
2018-02-22T07:41:20.877Z,99.90
2018-02-22T07:43:48.486Z,99.90
2018-02-22T07:46:17.463Z,99.90
2018-02-22T07:48:44.984Z,99.90
2018-02-22T07:51:13.282Z,99.90
2018-02-22T07:53:40.780Z,99.90
2018-02-22T07:56:08.363Z,99.90
2018-02-22T07:58:36.647Z,99.90
2018-02-22T08:01:04.914Z,99.90
2018-02-22T08:03:32.427Z,99.90
2018-02-22T08:05:59.928Z,99.90
2018-02-22T08:08:28.311Z,99.90
2018-02-22T08:10:55.818Z,99.90
2018-02-22T08:13:23.348Z,99.90
2018-02-22T08:15:50.944Z,99.90
2018-02-22T08:18:18.452Z,99.90
2018-02-22T08:20:45.993Z,99.90
2018-02-22T08:23:13.511Z,99.90
2018-02-22T08:25:41.081Z,99.90
2018-02-22T08:28:08.625Z,99.90
2018-02-22T08:30:36.191Z,99.90
2018-02-22T08:33:03.748Z,99.90
2018-02-22T08:35:31.253Z,99.90
2018-02-22T08:37:58.795Z,99.90
2018-02-22T08:40:26.348Z,99.90
2018-02-22T08:42:53.899Z,99.90
2018-02-22T08:45:21.570Z,99.90
2018-02-22T08:47:49.111Z,99.90
2018-02-22T08:50:16.629Z,99.90
2018-02-22T08:52:44.129Z,99.90
2018-02-22T08:55:11.658Z,99.90
2018-02-22T08:57:39.959Z,99.90
2018-02-22T09:00:07.523Z,99.90
2018-02-22T09:02:35.194Z,99.90
2018-02-22T09:05:02.721Z,99.90
2018-02-22T09:07:31.007Z,99.90
2018-02-22T09:09:59.309Z,99.90
2018-02-22T09:12:26.841Z,99.90
2018-02-22T09:14:55.116Z,99.90
2018-02-22T09:17:23.290Z,99.90
2018-02-22T09:19:50.803Z,99.90
2018-02-22T09:22:18.315Z,99.90
2018-02-22T09:24:45.830Z,99.90
2018-02-22T09:27:13.346Z,99.90
2018-02-22T09:29:40.873Z,99.90
2018-02-22T09:32:08.384Z,99.90
2018-02-22T09:34:35.961Z,99.90
2018-02-22T09:37:03.502Z,99.90
2018-02-22T09:39:31.020Z,99.90
2018-02-22T09:41:59.303Z,99.90
2018-02-22T09:44:26.835Z,99.90
2018-02-22T09:46:54.368Z,99.90
2018-02-22T09:49:21.929Z,99.90
2018-02-22T09:51:49.425Z,99.90
2018-02-22T09:54:17.042Z,99.90
2018-02-22T09:56:44.542Z,99.90
2018-02-22T09:59:12.067Z,99.90
2018-02-22T10:01:39.603Z,99.90
2018-02-22T10:04:07.148Z,99.90
2018-02-22T10:06:34.834Z,99.90
2018-02-22T10:09:02.355Z,99.90
2018-02-22T10:11:30.645Z,99.90
2018-02-22T10:13:59.054Z,99.90
2018-02-22T10:16:26.582Z,99.90
2018-02-22T10:18:54.928Z,95.90
2018-02-22T10:21:22.482Z,95.80
2018-02-22T10:23:49.994Z,93.10
2018-02-22T10:26:17.532Z,92.40
2018-02-22T10:28:45.095Z,93.50
2018-02-22T10:31:13.384Z,88.30
2018-02-22T10:33:40.898Z,88.30
2018-02-22T10:36:08.416Z,84.90
2018-02-22T10:38:35.946Z,82.10
2018-02-22T10:41:04.257Z,59.10
2018-02-22T10:43:31.931Z,59.10
2018-02-22T10:45:59.437Z,49.50
2018-02-22T10:48:26.971Z,45.50
2018-02-22T10:50:54.615Z,41.40
2018-02-22T10:53:22.134Z,37.60
2018-02-22T10:55:50.438Z,34.50
2018-02-22T10:58:17.963Z,34.50
2018-02-22T11:00:51.067Z,32.70
2018-02-22T11:03:18.589Z,31.80
2018-02-22T11:05:46.126Z,31.90
2018-02-22T11:08:14.479Z,28.90
2018-02-22T11:10:42.036Z,28.80
2018-02-22T11:13:09.551Z,28.30
2018-02-22T11:15:37.179Z,28.40
2018-02-22T11:18:04.696Z,26.40
2018-02-22T11:20:33.022Z,29.20
2018-02-22T11:23:00.597Z,29.10
2018-02-22T11:25:28.118Z,29.80
2018-02-22T11:27:55.660Z,30.00
2018-02-22T11:30:23.195Z,29.70
2018-02-22T11:32:51.499Z,28.00
2018-02-22T11:35:19.035Z,27.90
2018-02-22T11:37:46.578Z,29.30
2018-02-22T11:40:14.127Z,30.50
2018-02-22T11:42:41.679Z,34.00
2018-02-22T11:45:09.258Z,35.20
2018-02-22T11:47:36.780Z,36.30
2018-02-22T11:50:04.299Z,35.00
2018-02-22T11:52:32.623Z,33.60
2018-02-22T11:55:00.160Z,33.60
2018-02-22T11:57:28.755Z,31.90
2018-02-22T11:59:56.328Z,30.50
2018-02-22T12:02:23.951Z,31.10
2018-02-22T12:04:51.467Z,28.60
2018-02-22T12:07:18.997Z,27.10
2018-02-22T12:09:46.545Z,26.80
2018-02-22T12:12:14.120Z,28.00
2018-02-22T12:14:41.647Z,27.80
2018-02-22T12:17:09.201Z,29.80
2018-02-22T12:19:37.633Z,33.00
2018-02-22T12:22:05.162Z,33.00
2018-02-22T12:24:32.664Z,35.30
2018-02-22T12:27:00.230Z,36.20
2018-02-22T12:29:27.950Z,37.50
2018-02-22T12:31:55.469Z,37.30
2018-02-22T12:34:23.010Z,38.60
2018-02-22T12:36:50.560Z,39.00
2018-02-22T12:39:18.108Z,36.70
2018-02-22T12:41:45.760Z,35.90
2018-02-22T12:44:13.311Z,38.70
2018-02-22T12:46:40.876Z,39.30
2018-02-22T12:49:08.403Z,39.60
2018-02-22T12:51:36.718Z,42.70
2018-02-22T12:54:04.301Z,42.70
2018-02-22T12:56:31.822Z,43.30
2018-02-22T12:58:59.381Z,43.60
2018-02-22T13:01:26.897Z,44.10
2018-02-22T13:03:54.417Z,44.00
2018-02-22T13:06:21.981Z,45.00
2018-02-22T13:08:49.633Z,45.20
2018-02-22T13:11:17.156Z,45.20
2018-02-22T13:13:45.442Z,46.60
2018-02-22T13:16:13.035Z,46.40
2018-02-22T13:18:40.616Z,46.50
2018-02-22T13:21:08.155Z,47.00
2018-02-22T13:23:35.687Z,47.10
2018-02-22T13:26:03.954Z,46.50
2018-02-22T13:28:32.232Z,45.80
2018-02-22T13:31:00.556Z,45.10
2018-02-22T13:33:39.820Z,45.10
2018-02-22T13:36:07.340Z,44.50
2018-02-22T13:38:46.709Z,43.90
2018-02-22T13:41:14.220Z,44.10
2018-02-22T13:43:41.899Z,44.80
2018-02-22T13:46:09.432Z,45.30
2018-02-22T13:48:49.572Z,44.00
2018-02-22T13:51:17.902Z,43.20
2018-02-22T13:53:45.450Z,43.20
2018-02-22T13:56:24.955Z,42.90
2018-02-22T13:58:52.457Z,41.40
2018-02-22T14:01:31.715Z,41.90
2018-02-22T14:03:59.223Z,42.90
2018-02-22T14:06:27.526Z,44.20
2018-02-22T14:08:55.026Z,44.10
2018-02-22T14:11:22.545Z,45.20
2018-02-22T14:13:50.037Z,46.10
2018-02-22T14:16:17.552Z,45.50
2018-02-22T14:18:45.048Z,45.60
2018-02-22T14:21:12.552Z,45.20
2018-02-22T14:23:40.820Z,46.10
2018-02-22T14:26:09.080Z,44.90
2018-02-22T14:28:36.610Z,44.80
2018-02-22T14:31:04.107Z,46.20
2018-02-22T14:33:32.393Z,48.40
2018-02-22T14:36:00.699Z,48.80
2018-02-22T14:38:28.212Z,48.80
2018-02-22T14:40:55.719Z,48.10
2018-02-22T14:43:23.252Z,47.20
2018-02-22T14:45:50.769Z,47.70
2018-02-22T14:48:18.291Z,49.00
2018-02-22T14:50:45.847Z,49.50
2018-02-22T14:53:13.346Z,49.80
2018-02-22T14:55:40.905Z,50.20
2018-02-22T14:58:08.440Z,50.20
2018-02-22T15:00:36.100Z,50.20
2018-02-22T15:03:03.625Z,49.40
2018-02-22T15:05:31.919Z,49.80
2018-02-22T15:07:59.496Z,49.80
2018-02-22T15:10:26.986Z,50.70
2018-02-22T15:12:54.510Z,51.20
2018-02-22T15:15:22.010Z,51.70
2018-02-22T15:17:49.630Z,52.40
2018-02-22T15:20:17.134Z,52.60
2018-02-22T15:22:44.654Z,52.80
2018-02-22T15:25:12.151Z,53.40
2018-02-22T15:27:39.814Z,53.30
2018-02-22T15:30:07.370Z,53.90
2018-02-22T15:32:34.916Z,54.40
2018-02-22T15:35:03.270Z,52.60
2018-02-22T15:37:30.779Z,52.60
2018-02-22T15:39:58.287Z,53.30
2018-02-22T15:42:25.851Z,53.40
2018-02-22T15:44:54.116Z,53.50
2018-02-22T15:47:21.665Z,53.50
2018-02-22T15:49:49.171Z,53.90
2018-02-22T15:52:16.713Z,54.30
2018-02-22T15:54:44.249Z,55.40
2018-02-22T15:57:11.770Z,56.00
2018-02-22T15:59:39.306Z,57.20
2018-02-22T16:02:06.824Z,58.40
2018-02-22T16:04:34.368Z,60.50
2018-02-22T16:07:02.640Z,64.20
2018-02-22T16:09:30.962Z,66.20
2018-02-22T16:11:58.595Z,65.90
2018-02-22T16:14:26.904Z,68.80
2018-02-22T16:16:54.431Z,68.70
2018-02-22T16:19:21.943Z,68.60
2018-02-22T16:21:49.535Z,68.20
2018-02-22T16:24:17.063Z,67.70
2018-02-22T16:26:44.671Z,66.30
2018-02-22T16:29:12.235Z,67.00
2018-02-22T16:31:40.554Z,67.60
2018-02-22T16:34:08.090Z,67.60
2018-02-22T16:36:35.676Z,67.60
2018-02-22T16:39:03.213Z,67.80
2018-02-22T16:41:30.756Z,68.60
2018-02-22T16:43:59.023Z,71.10
2018-02-22T16:46:27.366Z,71.40
2018-02-22T16:48:54.878Z,71.30
2018-02-22T16:51:22.423Z,72.90
2018-02-22T16:53:50.698Z,74.20
2018-02-22T16:56:18.230Z,74.20
2018-02-22T16:58:45.739Z,75.50
2018-02-22T17:01:13.239Z,77.20
2018-02-22T17:03:40.756Z,76.80
2018-02-22T17:06:08.388Z,77.00
2018-02-22T17:08:36.703Z,80.20
2018-02-22T17:11:04.232Z,80.20
2018-02-22T17:13:31.756Z,82.00
2018-02-22T17:15:59.385Z,83.50
2018-02-22T17:18:27.046Z,84.70
2018-02-22T17:20:54.562Z,85.60
2018-02-22T17:23:22.909Z,87.60
2018-02-22T17:25:56.140Z,87.50
2018-02-22T17:28:29.478Z,88.40
2018-02-22T17:31:02.612Z,88.70
2018-02-22T17:33:30.224Z,90.00
2018-02-22T17:36:03.474Z,90.20
2018-02-22T17:38:36.595Z,90.30
2018-02-22T17:41:07.582Z,91.10
2018-02-22T17:43:35.076Z,91.50
2018-02-22T17:46:03.343Z,91.90
2018-02-22T17:48:30.881Z,91.90
2018-02-22T17:50:58.391Z,92.00
2018-02-22T17:53:26.009Z,92.40
2018-02-22T17:55:53.600Z,92.80
2018-02-22T17:58:21.168Z,93.20
2018-02-22T18:00:48.698Z,93.70
2018-02-22T18:03:16.216Z,93.80
2018-02-22T18:05:43.716Z,93.80
2018-02-22T18:08:11.320Z,94.50
2018-02-22T18:10:38.821Z,94.90
2018-02-22T18:13:06.390Z,95.00
2018-02-22T18:15:33.964Z,94.40
2018-02-22T18:18:01.472Z,94.70
2018-02-22T18:20:29.016Z,95.30
2018-02-22T18:22:56.528Z,95.80
2018-02-22T18:25:24.042Z,96.30
2018-02-22T18:27:51.540Z,97.00
2018-02-22T18:30:19.159Z,97.60
2018-02-22T18:32:46.672Z,97.60
2018-02-22T18:35:14.193Z,97.90
2018-02-22T18:37:47.321Z,97.80
2018-02-22T18:40:20.414Z,98.40
2018-02-22T18:42:49.718Z,97.90
2018-02-22T18:45:17.217Z,98.40
2018-02-22T18:47:44.908Z,98.50
2018-02-22T18:50:12.462Z,98.30
2018-02-22T18:52:39.973Z,98.10
2018-02-22T18:55:08.262Z,97.60
2018-02-22T18:57:35.770Z,97.60
2018-02-22T19:00:03.446Z,98.20
2018-02-22T19:02:30.979Z,98.90
2018-02-22T19:04:58.525Z,99.10
2018-02-22T19:07:26.072Z,99.30
2018-02-22T19:09:53.614Z,98.90
2018-02-22T19:12:21.128Z,98.80
2018-02-22T19:14:48.620Z,98.90
2018-02-22T19:17:16.903Z,99.20
2018-02-22T19:19:45.221Z,99.10
2018-02-22T19:22:12.944Z,99.10
2018-02-22T19:24:40.595Z,99.20
2018-02-22T19:27:09.046Z,99.20
2018-02-22T19:29:36.553Z,98.90
2018-02-22T19:32:04.875Z,99.60
2018-02-22T19:34:32.378Z,99.60
2018-02-22T19:37:00.678Z,99.60
2018-02-22T19:39:28.970Z,98.90
2018-02-22T19:41:56.480Z,98.90
2018-02-22T19:44:23.998Z,99.20
2018-02-22T19:46:51.527Z,99.40
2018-02-22T19:49:19.803Z,99.90
2018-02-22T19:51:48.066Z,99.90
2018-02-22T19:54:15.694Z,99.90
2018-02-22T19:56:43.278Z,99.90
2018-02-22T19:59:10.776Z,99.90
2018-02-22T20:01:38.311Z,99.90
2018-02-22T20:04:06.600Z,99.90
2018-02-22T20:06:34.894Z,99.90
2018-02-22T20:09:02.413Z,99.90
2018-02-22T20:11:29.927Z,99.90
2018-02-22T20:13:57.444Z,99.90
2018-02-22T20:16:25.856Z,99.90
2018-02-22T20:18:53.366Z,99.90
2018-02-22T20:21:20.912Z,99.90
2018-02-22T20:23:48.411Z,99.90
2018-02-22T20:26:16.000Z,99.90
2018-02-22T20:28:43.526Z,99.90
2018-02-22T20:31:11.216Z,99.90
2018-02-22T20:33:38.741Z,99.90
2018-02-22T20:36:07.024Z,99.80
2018-02-22T20:38:35.292Z,99.90
2018-02-22T20:41:03.607Z,99.70
2018-02-22T20:43:31.125Z,99.70
2018-02-22T20:45:58.727Z,98.80
2018-02-22T20:48:26.232Z,98.70
2018-02-22T20:50:53.744Z,98.30
2018-02-22T20:53:23.152Z,97.10
2018-02-22T20:55:50.677Z,97.40
2018-02-22T20:58:18.185Z,97.70
2018-02-22T21:00:45.711Z,97.70
2018-02-22T21:03:13.697Z,97.20
2018-02-22T21:05:41.193Z,97.50
2018-02-22T21:08:08.710Z,97.60
2018-02-22T21:10:36.309Z,97.20
2018-02-22T21:13:03.821Z,96.00
2018-02-22T21:15:31.329Z,95.20
2018-02-22T21:17:58.875Z,95.90
2018-02-22T21:20:26.395Z,95.80
2018-02-22T21:22:54.672Z,96.80
2018-02-22T21:25:22.944Z,97.20
2018-02-22T21:27:52.361Z,97.40
2018-02-22T21:30:19.879Z,97.40
2018-02-22T21:32:47.392Z,96.50
2018-02-22T21:35:15.008Z,97.00
2018-02-22T21:37:43.287Z,97.10
2018-02-22T21:40:10.853Z,97.10
2018-02-22T21:42:38.401Z,96.80
2018-02-22T21:45:05.940Z,97.00
2018-02-22T21:47:33.466Z,97.30
2018-02-22T21:50:00.973Z,96.80
2018-02-22T21:52:28.551Z,95.60
2018-02-22T21:54:56.058Z,96.20
2018-02-22T21:57:23.634Z,96.00
2018-02-22T21:59:51.141Z,95.90
2018-02-22T22:02:18.649Z,96.10
2018-02-22T22:04:46.160Z,95.60
2018-02-22T22:07:14.709Z,94.60
2018-02-22T22:09:42.231Z,94.60
2018-02-22T22:12:09.899Z,93.80
2018-02-22T22:14:37.453Z,94.20
2018-02-22T22:17:04.973Z,94.20
2018-02-22T22:19:32.474Z,94.50
2018-02-22T22:21:59.998Z,93.60
2018-02-22T22:24:28.274Z,94.50
2018-02-22T22:26:55.837Z,94.50
2018-02-22T22:29:24.143Z,93.80
2018-02-22T22:31:51.707Z,93.80
2018-02-22T22:34:19.243Z,93.90
2018-02-22T22:36:46.808Z,94.20
2018-02-22T22:39:14.329Z,94.20
2018-02-22T22:41:41.867Z,94.00
2018-02-22T22:44:09.470Z,94.50
2018-02-22T22:46:36.988Z,91.90
2018-02-22T22:49:04.500Z,91.90
2018-02-22T22:51:32.758Z,92.10
2018-02-22T22:54:01.052Z,91.40
2018-02-22T22:56:29.366Z,92.20
2018-02-22T22:58:56.867Z,92.20
2018-02-22T23:01:24.411Z,92.20
2018-02-22T23:03:51.895Z,91.40
2018-02-22T23:06:20.170Z,90.60
2018-02-22T23:08:48.466Z,80.30
2018-02-22T23:11:15.977Z,80.10
2018-02-22T23:13:43.560Z,75.90
2018-02-22T23:16:11.856Z,70.40
2018-02-22T23:18:40.131Z,67.50
2018-02-22T23:21:08.446Z,66.50
2018-02-22T23:23:35.982Z,66.50
2018-02-22T23:26:03.531Z,65.60
2018-02-22T23:28:31.821Z,64.80
2018-02-22T23:30:59.331Z,64.80
2018-02-22T23:33:26.954Z,64.90
2018-02-22T23:35:54.512Z,65.80
2018-02-22T23:38:22.037Z,65.70
2018-02-22T23:40:50.436Z,66.20
2018-02-22T23:43:17.959Z,66.10
2018-02-22T23:45:45.486Z,65.90
2018-02-22T23:48:13.034Z,64.80
2018-02-22T23:50:40.548Z,65.00
2018-02-22T23:53:08.093Z,66.10
2018-02-22T23:55:35.689Z,67.60
2018-02-22T23:58:03.188Z,68.70
